sensor_id;sensor_type;location;lat;lon;timestamp;P1;durP1;ratioP1;P2;durP2;ratioP2
14209;SDS011;7188;56.070;12.698;2022-08-23T00:01:12;1.93;;;0.87;;
14209;SDS011;7188;56.070;12.698;2022-08-23T00:03:41;4.00;;;1.10;;
14209;SDS011;7188;56.070;12.698;2022-08-23T00:06:06;3.40;;;1.00;;
14209;SDS011;7188;56.070;12.698;2022-08-23T00:08:33;4.67;;;0.80;;
14209;SDS011;7188;56.070;12.698;2022-08-23T00:13:49;2.13;;;0.80;;
14209;SDS011;7188;56.070;12.698;2022-08-23T00:16:15;1.57;;;0.70;;
14209;SDS011;7188;56.070;12.698;2022-08-23T00:18:40;2.67;;;1.13;;
14209;SDS011;7188;56.070;12.698;2022-08-23T00:21:06;1.67;;;1.10;;
14209;SDS011;7188;56.070;12.698;2022-08-23T00:23:32;5.30;;;1.00;;
14209;SDS011;7188;56.070;12.698;2022-08-23T00:26:00;1.80;;;0.80;;
14209;SDS011;7188;56.070;12.698;2022-08-23T00:28:26;2.13;;;0.80;;
14209;SDS011;7188;56.070;12.698;2022-08-23T00:30:52;2.73;;;0.90;;
14209;SDS011;7188;56.070;12.698;2022-08-23T00:33:18;2.27;;;0.97;;
14209;SDS011;7188;56.070;12.698;2022-08-23T00:35:43;1.97;;;0.97;;
14209;SDS011;7188;56.070;12.698;2022-08-23T00:38:09;4.30;;;1.20;;
14209;SDS011;7188;56.070;12.698;2022-08-23T00:40:35;3.37;;;1.23;;
14209;SDS011;7188;56.070;12.698;2022-08-23T00:43:04;0.93;;;0.90;;
14209;SDS011;7188;56.070;12.698;2022-08-23T00:48:56;2.40;;;1.03;;
14209;SDS011;7188;56.070;12.698;2022-08-23T00:51:29;2.70;;;1.43;;
14209;SDS011;7188;56.070;12.698;2022-08-23T00:54:00;0.90;;;0.90;;
14209;SDS011;7188;56.070;12.698;2022-08-23T00:56:27;4.00;;;1.43;;
14209;SDS011;7188;56.070;12.698;2022-08-23T00:58:56;1.50;;;0.83;;
14209;SDS011;7188;56.070;12.698;2022-08-23T01:01:22;2.77;;;1.50;;
14209;SDS011;7188;56.070;12.698;2022-08-23T01:03:49;2.73;;;1.37;;
14209;SDS011;7188;56.070;12.698;2022-08-23T01:08:50;2.97;;;1.27;;
14209;SDS011;7188;56.070;12.698;2022-08-23T01:11:23;2.90;;;1.50;;
14209;SDS011;7188;56.070;12.698;2022-08-23T01:13:56;3.23;;;1.23;;
14209;SDS011;7188;56.070;12.698;2022-08-23T01:16:31;3.00;;;1.43;;
14209;SDS011;7188;56.070;12.698;2022-08-23T01:19:17;2.27;;;1.30;;
14209;SDS011;7188;56.070;12.698;2022-08-23T01:21:52;4.67;;;1.30;;
14209;SDS011;7188;56.070;12.698;2022-08-23T01:24:44;3.27;;;1.37;;
14209;SDS011;7188;56.070;12.698;2022-08-23T01:27:10;2.77;;;1.23;;
14209;SDS011;7188;56.070;12.698;2022-08-23T01:29:38;3.23;;;1.47;;
14209;SDS011;7188;56.070;12.698;2022-08-23T01:32:05;2.77;;;1.30;;
14209;SDS011;7188;56.070;12.698;2022-08-23T01:34:32;1.37;;;1.10;;
14209;SDS011;7188;56.070;12.698;2022-08-23T01:36:58;2.03;;;1.43;;
14209;SDS011;7188;56.070;12.698;2022-08-23T01:39:25;4.60;;;2.10;;
14209;SDS011;7188;56.070;12.698;2022-08-23T01:41:51;3.67;;;2.10;;
14209;SDS011;7188;56.070;12.698;2022-08-23T01:44:17;5.10;;;2.63;;
14209;SDS011;7188;56.070;12.698;2022-08-23T01:46:43;2.73;;;1.43;;
14209;SDS011;7188;56.070;12.698;2022-08-23T01:49:10;2.77;;;1.50;;
14209;SDS011;7188;56.070;12.698;2022-08-23T01:51:37;4.93;;;2.00;;
14209;SDS011;7188;56.070;12.698;2022-08-23T01:54:03;3.47;;;1.57;;
14209;SDS011;7188;56.070;12.698;2022-08-23T01:56:29;3.13;;;1.77;;
14209;SDS011;7188;56.070;12.698;2022-08-23T01:58:56;7.07;;;2.00;;
14209;SDS011;7188;56.070;12.698;2022-08-23T02:01:22;4.20;;;1.97;;
14209;SDS011;7188;56.070;12.698;2022-08-23T02:03:48;3.47;;;1.60;;
14209;SDS011;7188;56.070;12.698;2022-08-23T02:06:14;3.33;;;2.33;;
14209;SDS011;7188;56.070;12.698;2022-08-23T02:08:39;1.73;;;1.27;;
14209;SDS011;7188;56.070;12.698;2022-08-23T02:11:24;5.13;;;2.00;;
14209;SDS011;7188;56.070;12.698;2022-08-23T02:13:51;3.97;;;2.13;;
14209;SDS011;7188;56.070;12.698;2022-08-23T02:18:55;4.83;;;2.10;;
14209;SDS011;7188;56.070;12.698;2022-08-23T02:21:21;2.47;;;1.93;;
14209;SDS011;7188;56.070;12.698;2022-08-23T02:23:48;3.17;;;1.77;;
14209;SDS011;7188;56.070;12.698;2022-08-23T02:26:16;4.20;;;2.10;;
14209;SDS011;7188;56.070;12.698;2022-08-23T02:28:42;4.77;;;2.13;;
14209;SDS011;7188;56.070;12.698;2022-08-23T02:31:07;3.97;;;2.13;;
14209;SDS011;7188;56.070;12.698;2022-08-23T02:33:33;3.57;;;1.70;;
14209;SDS011;7188;56.070;12.698;2022-08-23T02:35:59;2.83;;;1.93;;
14209;SDS011;7188;56.070;12.698;2022-08-23T02:38:25;4.97;;;2.30;;
14209;SDS011;7188;56.070;12.698;2022-08-23T02:40:51;3.77;;;1.43;;
14209;SDS011;7188;56.070;12.698;2022-08-23T02:43:17;5.50;;;1.83;;
14209;SDS011;7188;56.070;12.698;2022-08-23T02:45:42;3.57;;;2.10;;
14209;SDS011;7188;56.070;12.698;2022-08-23T02:48:10;3.27;;;2.27;;
14209;SDS011;7188;56.070;12.698;2022-08-23T02:50:36;6.57;;;2.00;;
14209;SDS011;7188;56.070;12.698;2022-08-23T02:53:02;2.90;;;1.77;;
14209;SDS011;7188;56.070;12.698;2022-08-23T02:55:28;3.33;;;2.20;;
14209;SDS011;7188;56.070;12.698;2022-08-23T02:57:54;4.57;;;1.90;;
14209;SDS011;7188;56.070;12.698;2022-08-23T03:00:20;5.30;;;2.67;;
14209;SDS011;7188;56.070;12.698;2022-08-23T03:02:46;6.53;;;2.40;;
14209;SDS011;7188;56.070;12.698;2022-08-23T03:05:12;3.83;;;1.90;;
14209;SDS011;7188;56.070;12.698;2022-08-23T03:07:39;2.50;;;1.70;;
14209;SDS011;7188;56.070;12.698;2022-08-23T03:10:05;3.50;;;1.93;;
14209;SDS011;7188;56.070;12.698;2022-08-23T03:12:32;3.63;;;2.03;;
14209;SDS011;7188;56.070;12.698;2022-08-23T03:14:58;3.50;;;2.10;;
14209;SDS011;7188;56.070;12.698;2022-08-23T03:17:24;3.80;;;1.90;;
14209;SDS011;7188;56.070;12.698;2022-08-23T03:19:50;3.70;;;1.90;;
14209;SDS011;7188;56.070;12.698;2022-08-23T03:22:16;2.90;;;1.70;;
14209;SDS011;7188;56.070;12.698;2022-08-23T03:24:43;3.63;;;1.60;;
14209;SDS011;7188;56.070;12.698;2022-08-23T03:27:09;4.33;;;2.03;;
14209;SDS011;7188;56.070;12.698;2022-08-23T03:29:35;5.23;;;2.27;;
14209;SDS011;7188;56.070;12.698;2022-08-23T03:32:01;2.67;;;2.10;;
14209;SDS011;7188;56.070;12.698;2022-08-23T03:34:28;2.60;;;1.73;;
14209;SDS011;7188;56.070;12.698;2022-08-23T03:36:54;2.50;;;1.57;;
14209;SDS011;7188;56.070;12.698;2022-08-23T03:39:20;4.53;;;1.80;;
14209;SDS011;7188;56.070;12.698;2022-08-23T03:41:46;5.37;;;1.63;;
14209;SDS011;7188;56.070;12.698;2022-08-23T03:44:12;4.43;;;1.93;;
14209;SDS011;7188;56.070;12.698;2022-08-23T03:46:37;2.13;;;1.53;;
14209;SDS011;7188;56.070;12.698;2022-08-23T03:49:03;5.23;;;1.60;;
14209;SDS011;7188;56.070;12.698;2022-08-23T03:51:29;1.67;;;1.40;;
14209;SDS011;7188;56.070;12.698;2022-08-23T03:53:56;1.57;;;1.30;;
14209;SDS011;7188;56.070;12.698;2022-08-23T03:58:53;3.40;;;1.70;;
14209;SDS011;7188;56.070;12.698;2022-08-23T04:01:19;2.83;;;1.40;;
14209;SDS011;7188;56.070;12.698;2022-08-23T04:03:45;3.40;;;1.70;;
14209;SDS011;7188;56.070;12.698;2022-08-23T04:06:14;4.20;;;1.50;;
14209;SDS011;7188;56.070;12.698;2022-08-23T04:08:41;5.23;;;1.67;;
14209;SDS011;7188;56.070;12.698;2022-08-23T04:11:07;4.50;;;1.80;;
14209;SDS011;7188;56.070;12.698;2022-08-23T04:13:34;3.80;;;1.30;;
14209;SDS011;7188;56.070;12.698;2022-08-23T04:16:01;1.93;;;1.50;;
14209;SDS011;7188;56.070;12.698;2022-08-23T04:18:29;3.13;;;1.60;;
14209;SDS011;7188;56.070;12.698;2022-08-23T04:20:56;1.87;;;1.30;;
14209;SDS011;7188;56.070;12.698;2022-08-23T04:23:23;4.07;;;1.40;;
14209;SDS011;7188;56.070;12.698;2022-08-23T04:25:52;2.40;;;1.23;;
14209;SDS011;7188;56.070;12.698;2022-08-23T04:28:18;2.30;;;1.30;;
14209;SDS011;7188;56.070;12.698;2022-08-23T04:30:44;2.70;;;0.90;;
14209;SDS011;7188;56.070;12.698;2022-08-23T04:33:10;1.73;;;1.20;;
14209;SDS011;7188;56.070;12.698;2022-08-23T04:35:36;6.20;;;1.50;;
14209;SDS011;7188;56.070;12.698;2022-08-23T04:38:02;6.70;;;1.60;;
14209;SDS011;7188;56.070;12.698;2022-08-23T04:40:31;3.10;;;1.30;;
14209;SDS011;7188;56.070;12.698;2022-08-23T04:43:14;7.53;;;1.10;;
14209;SDS011;7188;56.070;12.698;2022-08-23T04:45:40;3.30;;;1.20;;
14209;SDS011;7188;56.070;12.698;2022-08-23T04:48:06;3.60;;;1.30;;
14209;SDS011;7188;56.070;12.698;2022-08-23T04:50:34;3.93;;;1.10;;
14209;SDS011;7188;56.070;12.698;2022-08-23T04:53:00;3.07;;;1.20;;
14209;SDS011;7188;56.070;12.698;2022-08-23T04:55:26;5.03;;;1.07;;
14209;SDS011;7188;56.070;12.698;2022-08-23T04:57:52;4.40;;;1.30;;
14209;SDS011;7188;56.070;12.698;2022-08-23T05:00:18;2.20;;;0.80;;
14209;SDS011;7188;56.070;12.698;2022-08-23T05:02:44;2.93;;;1.27;;
14209;SDS011;7188;56.070;12.698;2022-08-23T05:05:10;1.63;;;1.10;;
14209;SDS011;7188;56.070;12.698;2022-08-23T05:07:37;4.93;;;1.30;;
14209;SDS011;7188;56.070;12.698;2022-08-23T05:10:04;4.97;;;1.10;;
14209;SDS011;7188;56.070;12.698;2022-08-23T05:12:32;4.40;;;1.10;;
14209;SDS011;7188;56.070;12.698;2022-08-23T05:14:58;4.07;;;1.20;;
14209;SDS011;7188;56.070;12.698;2022-08-23T05:17:24;2.53;;;1.30;;
14209;SDS011;7188;56.070;12.698;2022-08-23T05:19:51;2.93;;;1.23;;
14209;SDS011;7188;56.070;12.698;2022-08-23T05:22:17;3.23;;;0.90;;
14209;SDS011;7188;56.070;12.698;2022-08-23T05:24:43;2.27;;;0.93;;
14209;SDS011;7188;56.070;12.698;2022-08-23T05:27:08;3.77;;;1.43;;
14209;SDS011;7188;56.070;12.698;2022-08-23T05:29:34;2.87;;;0.90;;
14209;SDS011;7188;56.070;12.698;2022-08-23T05:32:00;3.53;;;1.27;;
14209;SDS011;7188;56.070;12.698;2022-08-23T05:34:26;3.47;;;1.23;;
14209;SDS011;7188;56.070;12.698;2022-08-23T05:36:52;5.57;;;1.00;;
14209;SDS011;7188;56.070;12.698;2022-08-23T05:39:18;1.80;;;0.83;;
14209;SDS011;7188;56.070;12.698;2022-08-23T05:41:44;2.20;;;0.93;;
14209;SDS011;7188;56.070;12.698;2022-08-23T05:44:10;2.33;;;1.10;;
14209;SDS011;7188;56.070;12.698;2022-08-23T05:46:36;1.97;;;0.90;;
14209;SDS011;7188;56.070;12.698;2022-08-23T05:49:03;5.17;;;1.03;;
14209;SDS011;7188;56.070;12.698;2022-08-23T05:51:30;3.67;;;1.33;;
14209;SDS011;7188;56.070;12.698;2022-08-23T05:53:58;5.23;;;1.10;;
14209;SDS011;7188;56.070;12.698;2022-08-23T05:56:30;2.67;;;0.70;;
14209;SDS011;7188;56.070;12.698;2022-08-23T05:59:08;1.90;;;0.93;;
14209;SDS011;7188;56.070;12.698;2022-08-23T06:01:36;4.10;;;1.10;;
14209;SDS011;7188;56.070;12.698;2022-08-23T06:04:04;2.97;;;1.07;;
14209;SDS011;7188;56.070;12.698;2022-08-23T06:06:31;2.63;;;1.20;;
14209;SDS011;7188;56.070;12.698;2022-08-23T06:08:58;9.33;;;1.00;;
14209;SDS011;7188;56.070;12.698;2022-08-23T06:11:26;8.10;;;1.33;;
14209;SDS011;7188;56.070;12.698;2022-08-23T06:13:54;5.37;;;1.43;;
14209;SDS011;7188;56.070;12.698;2022-08-23T06:16:31;4.37;;;1.20;;
14209;SDS011;7188;56.070;12.698;2022-08-23T06:19:00;5.70;;;1.23;;
14209;SDS011;7188;56.070;12.698;2022-08-23T06:21:26;3.60;;;1.40;;
14209;SDS011;7188;56.070;12.698;2022-08-23T06:23:53;4.13;;;1.20;;
14209;SDS011;7188;56.070;12.698;2022-08-23T06:26:21;6.00;;;1.30;;
14209;SDS011;7188;56.070;12.698;2022-08-23T06:28:52;5.07;;;1.57;;
14209;SDS011;7188;56.070;12.698;2022-08-23T06:31:20;3.30;;;1.27;;
14209;SDS011;7188;56.070;12.698;2022-08-23T06:34:10;5.67;;;1.20;;
14209;SDS011;7188;56.070;12.698;2022-08-23T06:36:38;3.60;;;0.80;;
14209;SDS011;7188;56.070;12.698;2022-08-23T06:39:05;9.13;;;1.20;;
14209;SDS011;7188;56.070;12.698;2022-08-23T06:41:32;4.43;;;1.00;;
14209;SDS011;7188;56.070;12.698;2022-08-23T06:43:58;6.53;;;1.00;;
14209;SDS011;7188;56.070;12.698;2022-08-23T06:46:24;4.50;;;0.80;;
14209;SDS011;7188;56.070;12.698;2022-08-23T06:48:51;3.83;;;0.80;;
14209;SDS011;7188;56.070;12.698;2022-08-23T06:51:22;6.27;;;1.33;;
14209;SDS011;7188;56.070;12.698;2022-08-23T06:53:48;4.03;;;0.80;;
14209;SDS011;7188;56.070;12.698;2022-08-23T06:56:15;3.90;;;1.50;;
14209;SDS011;7188;56.070;12.698;2022-08-23T06:58:41;4.47;;;0.90;;
14209;SDS011;7188;56.070;12.698;2022-08-23T07:01:11;6.00;;;1.13;;
14209;SDS011;7188;56.070;12.698;2022-08-23T07:03:44;2.30;;;0.80;;
14209;SDS011;7188;56.070;12.698;2022-08-23T07:06:09;5.37;;;1.00;;
14209;SDS011;7188;56.070;12.698;2022-08-23T07:08:35;8.20;;;1.90;;
14209;SDS011;7188;56.070;12.698;2022-08-23T07:11:02;6.20;;;1.27;;
14209;SDS011;7188;56.070;12.698;2022-08-23T07:13:28;8.20;;;1.40;;
14209;SDS011;7188;56.070;12.698;2022-08-23T07:15:57;9.17;;;1.63;;
14209;SDS011;7188;56.070;12.698;2022-08-23T07:18:24;8.63;;;1.10;;
14209;SDS011;7188;56.070;12.698;2022-08-23T07:20:54;7.47;;;1.07;;
14209;SDS011;7188;56.070;12.698;2022-08-23T07:23:24;3.67;;;1.00;;
14209;SDS011;7188;56.070;12.698;2022-08-23T07:25:50;2.50;;;0.70;;
14209;SDS011;7188;56.070;12.698;2022-08-23T07:28:17;2.27;;;0.73;;
14209;SDS011;7188;56.070;12.698;2022-08-23T07:30:43;3.10;;;0.83;;
14209;SDS011;7188;56.070;12.698;2022-08-23T07:33:09;5.38;;;0.90;;
14209;SDS011;7188;56.070;12.698;2022-08-23T07:35:35;4.97;;;0.57;;
14209;SDS011;7188;56.070;12.698;2022-08-23T07:38:01;5.50;;;0.80;;
14209;SDS011;7188;56.070;12.698;2022-08-23T07:40:26;2.73;;;0.57;;
14209;SDS011;7188;56.070;12.698;2022-08-23T07:42:54;1.50;;;0.50;;
14209;SDS011;7188;56.070;12.698;2022-08-23T07:45:21;3.90;;;0.75;;
14209;SDS011;7188;56.070;12.698;2022-08-23T07:47:47;6.05;;;0.60;;
14209;SDS011;7188;56.070;12.698;2022-08-23T07:50:13;1.03;;;0.60;;
14209;SDS011;7188;56.070;12.698;2022-08-23T07:52:38;4.90;;;0.60;;
14209;SDS011;7188;56.070;12.698;2022-08-23T07:55:04;3.63;;;0.70;;
14209;SDS011;7188;56.070;12.698;2022-08-23T07:57:31;5.45;;;1.02;;
14209;SDS011;7188;56.070;12.698;2022-08-23T07:59:57;4.55;;;1.05;;
14209;SDS011;7188;56.070;12.698;2022-08-23T08:02:22;12.20;;;1.00;;
14209;SDS011;7188;56.070;12.698;2022-08-23T08:04:48;11.70;;;1.40;;
14209;SDS011;7188;56.070;12.698;2022-08-23T08:07:13;4.93;;;0.75;;
14209;SDS011;7188;56.070;12.698;2022-08-23T08:09:39;2.55;;;0.68;;
14209;SDS011;7188;56.070;12.698;2022-08-23T08:12:08;1.70;;;0.45;;
14209;SDS011;7188;56.070;12.698;2022-08-23T08:14:35;3.83;;;0.85;;
14209;SDS011;7188;56.070;12.698;2022-08-23T08:17:02;2.92;;;0.77;;
14209;SDS011;7188;56.070;12.698;2022-08-23T08:19:27;5.53;;;1.20;;
14209;SDS011;7188;56.070;12.698;2022-08-23T08:21:53;4.63;;;0.60;;
14209;SDS011;7188;56.070;12.698;2022-08-23T08:24:19;1.77;;;0.98;;
14209;SDS011;7188;56.070;12.698;2022-08-23T08:26:44;7.00;;;0.95;;
14209;SDS011;7188;56.070;12.698;2022-08-23T08:29:11;3.78;;;0.65;;
14209;SDS011;7188;56.070;12.698;2022-08-23T08:31:38;2.70;;;0.70;;
14209;SDS011;7188;56.070;12.698;2022-08-23T08:34:06;6.95;;;0.60;;
14209;SDS011;7188;56.070;12.698;2022-08-23T08:36:35;5.95;;;0.57;;
14209;SDS011;7188;56.070;12.698;2022-08-23T08:39:04;4.40;;;0.70;;
14209;SDS011;7188;56.070;12.698;2022-08-23T08:49:10;3.50;;;0.60;;
14209;SDS011;7188;56.070;12.698;2022-08-23T08:52:20;6.13;;;0.60;;
14209;SDS011;7188;56.070;12.698;2022-08-23T08:57:51;2.08;;;0.50;;
14209;SDS011;7188;56.070;12.698;2022-08-23T09:02:44;1.40;;;0.50;;
14209;SDS011;7188;56.070;12.698;2022-08-23T09:05:14;2.15;;;0.65;;
14209;SDS011;7188;56.070;12.698;2022-08-23T09:18:52;2.60;;;0.95;;
14209;SDS011;7188;56.070;12.698;2022-08-23T09:21:18;2.17;;;0.50;;
14209;SDS011;7188;56.070;12.698;2022-08-23T09:23:46;5.57;;;0.60;;
14209;SDS011;7188;56.070;12.698;2022-08-23T09:26:17;3.58;;;0.52;;
14209;SDS011;7188;56.070;12.698;2022-08-23T09:28:48;2.53;;;0.50;;
14209;SDS011;7188;56.070;12.698;2022-08-23T09:31:34;3.55;;;0.73;;
14209;SDS011;7188;56.070;12.698;2022-08-23T09:34:05;3.30;;;0.70;;
14209;SDS011;7188;56.070;12.698;2022-08-23T09:36:31;2.75;;;0.50;;
14209;SDS011;7188;56.070;12.698;2022-08-23T09:39:01;5.05;;;0.73;;
14209;SDS011;7188;56.070;12.698;2022-08-23T09:41:31;0.93;;;0.60;;
14209;SDS011;7188;56.070;12.698;2022-08-23T09:44:07;1.40;;;0.55;;
14209;SDS011;7188;56.070;12.698;2022-08-23T09:46:37;2.20;;;0.50;;
14209;SDS011;7188;56.070;12.698;2022-08-23T09:51:52;1.95;;;0.60;;
14209;SDS011;7188;56.070;12.698;2022-08-23T09:54:31;3.17;;;0.50;;
14209;SDS011;7188;56.070;12.698;2022-08-23T09:57:00;3.47;;;0.73;;
14209;SDS011;7188;56.070;12.698;2022-08-23T09:59:44;1.52;;;0.40;;
14209;SDS011;7188;56.070;12.698;2022-08-23T10:04:58;1.55;;;0.50;;
14209;SDS011;7188;56.070;12.698;2022-08-23T10:07:26;1.45;;;0.68;;
14209;SDS011;7188;56.070;12.698;2022-08-23T10:09:51;1.95;;;0.55;;
14209;SDS011;7188;56.070;12.698;2022-08-23T10:12:18;1.05;;;0.40;;
14209;SDS011;7188;56.070;12.698;2022-08-23T10:14:44;0.98;;;0.50;;
14209;SDS011;7188;56.070;12.698;2022-08-23T10:25:44;2.13;;;0.55;;
14209;SDS011;7188;56.070;12.698;2022-08-23T10:28:28;1.40;;;0.47;;
14209;SDS011;7188;56.070;12.698;2022-08-23T10:31:46;1.17;;;0.32;;
14209;SDS011;7188;56.070;12.698;2022-08-23T10:34:18;2.65;;;0.50;;
14209;SDS011;7188;56.070;12.698;2022-08-23T10:42:59;2.25;;;0.40;;
14209;SDS011;7188;56.070;12.698;2022-08-23T10:45:30;1.00;;;0.38;;
14209;SDS011;7188;56.070;12.698;2022-08-23T10:50:44;2.08;;;0.40;;
14209;SDS011;7188;56.070;12.698;2022-08-23T10:53:23;0.95;;;0.40;;
14209;SDS011;7188;56.070;12.698;2022-08-23T10:56:12;3.15;;;0.40;;
14209;SDS011;7188;56.070;12.698;2022-08-23T11:01:14;2.28;;;0.40;;
14209;SDS011;7188;56.070;12.698;2022-08-23T11:09:08;1.33;;;0.50;;
14209;SDS011;7188;56.070;12.698;2022-08-23T11:12:04;2.28;;;0.50;;
14209;SDS011;7188;56.070;12.698;2022-08-23T11:17:10;2.15;;;0.55;;
14209;SDS011;7188;56.070;12.698;2022-08-23T11:22:15;2.15;;;0.50;;
14209;SDS011;7188;56.070;12.698;2022-08-23T11:24:55;0.50;;;0.50;;
14209;SDS011;7188;56.070;12.698;2022-08-23T11:29:55;1.33;;;0.52;;
14209;SDS011;7188;56.070;12.698;2022-08-23T11:32:22;0.75;;;0.47;;
14209;SDS011;7188;56.070;12.698;2022-08-23T11:37:54;2.72;;;0.50;;
14209;SDS011;7188;56.070;12.698;2022-08-23T11:45:54;2.30;;;0.47;;
14209;SDS011;7188;56.070;12.698;2022-08-23T11:49:01;2.08;;;0.50;;
14209;SDS011;7188;56.070;12.698;2022-08-23T12:04:06;3.97;;;0.47;;
14209;SDS011;7188;56.070;12.698;2022-08-23T12:09:10;2.38;;;0.55;;
14209;SDS011;7188;56.070;12.698;2022-08-23T12:17:05;2.05;;;0.50;;
14209;SDS011;7188;56.070;12.698;2022-08-23T12:20:26;1.30;;;0.50;;
14209;SDS011;7188;56.070;12.698;2022-08-23T12:25:24;1.10;;;0.40;;
14209;SDS011;7188;56.070;12.698;2022-08-23T12:39:05;1.27;;;0.60;;
14209;SDS011;7188;56.070;12.698;2022-08-23T12:44:21;2.40;;;0.52;;
14209;SDS011;7188;56.070;12.698;2022-08-23T12:46:49;1.42;;;0.40;;
14209;SDS011;7188;56.070;12.698;2022-08-23T12:49:27;2.15;;;0.43;;
14209;SDS011;7188;56.070;12.698;2022-08-23T12:51:58;3.92;;;0.50;;
14209;SDS011;7188;56.070;12.698;2022-08-23T12:54:49;1.85;;;0.80;;
14209;SDS011;7188;56.070;12.698;2022-08-23T12:57:29;0.50;;;0.43;;
14209;SDS011;7188;56.070;12.698;2022-08-23T13:00:01;1.42;;;0.60;;
14209;SDS011;7188;56.070;12.698;2022-08-23T13:02:37;0.80;;;0.40;;
14209;SDS011;7188;56.070;12.698;2022-08-23T13:05:12;2.55;;;0.40;;
14209;SDS011;7188;56.070;12.698;2022-08-23T13:07:46;1.45;;;0.63;;
14209;SDS011;7188;56.070;12.698;2022-08-23T13:10:12;1.17;;;0.50;;
14209;SDS011;7188;56.070;12.698;2022-08-23T13:12:38;2.05;;;0.40;;
14209;SDS011;7188;56.070;12.698;2022-08-23T13:15:06;1.10;;;0.50;;
14209;SDS011;7188;56.070;12.698;2022-08-23T13:17:34;3.30;;;0.52;;
14209;SDS011;7188;56.070;12.698;2022-08-23T13:23:05;1.88;;;0.82;;
14209;SDS011;7188;56.070;12.698;2022-08-23T13:25:40;2.88;;;0.50;;
14209;SDS011;7188;56.070;12.698;2022-08-23T13:31:05;2.63;;;0.73;;
14209;SDS011;7188;56.070;12.698;2022-08-23T13:33:33;1.85;;;0.52;;
14209;SDS011;7188;56.070;12.698;2022-08-23T13:36:12;0.40;;;0.35;;
14209;SDS011;7188;56.070;12.698;2022-08-23T13:38:41;0.93;;;0.60;;
14209;SDS011;7188;56.070;12.698;2022-08-23T13:41:25;1.98;;;0.40;;
14209;SDS011;7188;56.070;12.698;2022-08-23T13:43:54;2.35;;;0.35;;
14209;SDS011;7188;56.070;12.698;2022-08-23T13:46:21;4.70;;;0.52;;
14209;SDS011;7188;56.070;12.698;2022-08-23T13:48:53;2.08;;;0.47;;
14209;SDS011;7188;56.070;12.698;2022-08-23T13:51:42;1.10;;;0.50;;
14209;SDS011;7188;56.070;12.698;2022-08-23T13:54:27;1.38;;;0.35;;
14209;SDS011;7188;56.070;12.698;2022-08-23T13:56:55;2.45;;;0.52;;
14209;SDS011;7188;56.070;12.698;2022-08-23T13:59:26;2.17;;;0.40;;
14209;SDS011;7188;56.070;12.698;2022-08-23T14:01:55;2.83;;;0.30;;
14209;SDS011;7188;56.070;12.698;2022-08-23T14:04:21;1.65;;;0.43;;
14209;SDS011;7188;56.070;12.698;2022-08-23T14:06:47;0.52;;;0.50;;
14209;SDS011;7188;56.070;12.698;2022-08-23T14:09:13;0.70;;;0.40;;
14209;SDS011;7188;56.070;12.698;2022-08-23T14:11:40;1.30;;;0.40;;
14209;SDS011;7188;56.070;12.698;2022-08-23T14:14:06;3.22;;;0.52;;
14209;SDS011;7188;56.070;12.698;2022-08-23T14:16:33;1.35;;;0.45;;
14209;SDS011;7188;56.070;12.698;2022-08-23T14:19:04;0.65;;;0.30;;
14209;SDS011;7188;56.070;12.698;2022-08-23T14:21:30;2.05;;;0.55;;
14209;SDS011;7188;56.070;12.698;2022-08-23T14:23:56;2.28;;;0.40;;
14209;SDS011;7188;56.070;12.698;2022-08-23T14:26:22;1.27;;;0.43;;
14209;SDS011;7188;56.070;12.698;2022-08-23T14:28:48;0.98;;;0.50;;
14209;SDS011;7188;56.070;12.698;2022-08-23T14:31:15;0.68;;;0.32;;
14209;SDS011;7188;56.070;12.698;2022-08-23T14:33:40;0.98;;;0.47;;
14209;SDS011;7188;56.070;12.698;2022-08-23T14:36:06;1.00;;;0.50;;
14209;SDS011;7188;56.070;12.698;2022-08-23T14:38:48;0.98;;;0.43;;
14209;SDS011;7188;56.070;12.698;2022-08-23T14:41:26;3.65;;;0.70;;
14209;SDS011;7188;56.070;12.698;2022-08-23T14:43:53;3.35;;;0.80;;
14209;SDS011;7188;56.070;12.698;2022-08-23T14:46:19;0.77;;;0.40;;
14209;SDS011;7188;56.070;12.698;2022-08-23T14:48:47;1.40;;;0.60;;
14209;SDS011;7188;56.070;12.698;2022-08-23T14:51:26;0.98;;;0.55;;
14209;SDS011;7188;56.070;12.698;2022-08-23T14:53:57;0.68;;;0.50;;
14209;SDS011;7188;56.070;12.698;2022-08-23T14:56:23;1.58;;;0.50;;
14209;SDS011;7188;56.070;12.698;2022-08-23T14:58:49;2.67;;;0.43;;
14209;SDS011;7188;56.070;12.698;2022-08-23T15:01:15;2.58;;;0.50;;
14209;SDS011;7188;56.070;12.698;2022-08-23T15:03:42;0.93;;;0.50;;
14209;SDS011;7188;56.070;12.698;2022-08-23T15:06:09;1.52;;;0.40;;
14209;SDS011;7188;56.070;12.698;2022-08-23T15:08:35;2.42;;;0.50;;
14209;SDS011;7188;56.070;12.698;2022-08-23T15:11:01;3.80;;;0.47;;
14209;SDS011;7188;56.070;12.698;2022-08-23T15:13:28;3.58;;;0.63;;
14209;SDS011;7188;56.070;12.698;2022-08-23T15:15:54;4.03;;;0.60;;
14209;SDS011;7188;56.070;12.698;2022-08-23T15:18:20;1.42;;;0.50;;
14209;SDS011;7188;56.070;12.698;2022-08-23T15:20:47;1.45;;;0.70;;
14209;SDS011;7188;56.070;12.698;2022-08-23T15:23:12;3.47;;;0.70;;
14209;SDS011;7188;56.070;12.698;2022-08-23T15:25:39;1.38;;;0.52;;
14209;SDS011;7188;56.070;12.698;2022-08-23T15:28:06;1.90;;;0.65;;
14209;SDS011;7188;56.070;12.698;2022-08-23T15:30:33;1.73;;;0.60;;
14209;SDS011;7188;56.070;12.698;2022-08-23T15:32:59;1.73;;;0.60;;
14209;SDS011;7188;56.070;12.698;2022-08-23T15:35:25;2.67;;;0.63;;
14209;SDS011;7188;56.070;12.698;2022-08-23T15:37:52;1.40;;;0.60;;
14209;SDS011;7188;56.070;12.698;2022-08-23T15:40:20;1.80;;;0.50;;
14209;SDS011;7188;56.070;12.698;2022-08-23T15:42:46;2.72;;;0.50;;
14209;SDS011;7188;56.070;12.698;2022-08-23T15:45:11;0.68;;;0.60;;
14209;SDS011;7188;56.070;12.698;2022-08-23T15:47:42;3.05;;;0.60;;
14209;SDS011;7188;56.070;12.698;2022-08-23T15:50:19;2.53;;;0.90;;
14209;SDS011;7188;56.070;12.698;2022-08-23T15:52:47;1.50;;;0.60;;
14209;SDS011;7188;56.070;12.698;2022-08-23T15:55:13;5.40;;;0.70;;
14209;SDS011;7188;56.070;12.698;2022-08-23T15:57:40;2.40;;;0.45;;
14209;SDS011;7188;56.070;12.698;2022-08-23T16:00:12;1.10;;;0.57;;
14209;SDS011;7188;56.070;12.698;2022-08-23T16:02:39;7.13;;;1.98;;
14209;SDS011;7188;56.070;12.698;2022-08-23T16:05:05;1.77;;;1.15;;
14209;SDS011;7188;56.070;12.698;2022-08-23T16:07:31;2.42;;;1.00;;
14209;SDS011;7188;56.070;12.698;2022-08-23T16:09:58;1.85;;;0.60;;
14209;SDS011;7188;56.070;12.698;2022-08-23T16:12:26;2.50;;;0.50;;
14209;SDS011;7188;56.070;12.698;2022-08-23T16:14:52;1.33;;;0.60;;
14209;SDS011;7188;56.070;12.698;2022-08-23T16:17:19;2.55;;;1.35;;
14209;SDS011;7188;56.070;12.698;2022-08-23T16:19:45;2.28;;;0.70;;
14209;SDS011;7188;56.070;12.698;2022-08-23T16:22:11;0.98;;;0.40;;
14209;SDS011;7188;56.070;12.698;2022-08-23T16:24:38;1.60;;;0.60;;
14209;SDS011;7188;56.070;12.698;2022-08-23T16:27:04;2.45;;;0.40;;
14209;SDS011;7188;56.070;12.698;2022-08-23T16:29:31;2.75;;;0.70;;
14209;SDS011;7188;56.070;12.698;2022-08-23T16:32:00;2.28;;;0.70;;
14209;SDS011;7188;56.070;12.698;2022-08-23T16:34:29;3.17;;;0.60;;
14209;SDS011;7188;56.070;12.698;2022-08-23T16:36:58;3.00;;;0.40;;
14209;SDS011;7188;56.070;12.698;2022-08-23T16:39:28;2.28;;;0.68;;
14209;SDS011;7188;56.070;12.698;2022-08-23T16:41:56;1.40;;;0.60;;
14209;SDS011;7188;56.070;12.698;2022-08-23T16:44:22;1.73;;;0.55;;
14209;SDS011;7188;56.070;12.698;2022-08-23T16:46:48;2.10;;;0.70;;
14209;SDS011;7188;56.070;12.698;2022-08-23T16:49:15;1.95;;;0.50;;
14209;SDS011;7188;56.070;12.698;2022-08-23T16:51:42;3.50;;;0.45;;
14209;SDS011;7188;56.070;12.698;2022-08-23T16:54:09;2.88;;;0.50;;
14209;SDS011;7188;56.070;12.698;2022-08-23T16:56:35;1.80;;;0.40;;
14209;SDS011;7188;56.070;12.698;2022-08-23T16:59:02;3.05;;;0.55;;
14209;SDS011;7188;56.070;12.698;2022-08-23T17:01:29;1.40;;;0.57;;
14209;SDS011;7188;56.070;12.698;2022-08-23T17:03:56;1.20;;;0.57;;
14209;SDS011;7188;56.070;12.698;2022-08-23T17:06:22;0.90;;;0.35;;